createdAt,value
2023-05-07T00:00:29.503Z,0.00
2023-05-07T00:01:29.501Z,0.00
2023-05-07T00:02:29.529Z,0.00
2023-05-07T00:03:29.584Z,0.00
2023-05-07T00:04:29.612Z,0.00
2023-05-07T00:05:29.436Z,0.00
2023-05-07T00:06:29.430Z,0.00
2023-05-07T00:07:29.412Z,0.00
2023-05-07T00:08:29.403Z,0.00
2023-05-07T00:09:29.381Z,0.00
2023-05-07T00:10:29.388Z,0.00
2023-05-07T00:11:29.378Z,0.00
2023-05-07T00:12:29.357Z,0.00
2023-05-07T00:13:29.366Z,0.00
2023-05-07T00:14:29.329Z,0.00
2023-05-07T00:15:29.305Z,0.00
2023-05-07T00:16:29.327Z,0.00
2023-05-07T00:17:29.308Z,0.00
2023-05-07T00:18:29.314Z,0.00
2023-05-07T00:19:29.254Z,0.00
2023-05-07T00:20:29.312Z,0.00
2023-05-07T00:21:29.228Z,0.00
2023-05-07T00:22:29.234Z,0.00
2023-05-07T00:23:29.217Z,0.00
2023-05-07T00:24:29.197Z,0.00
2023-05-07T00:25:29.188Z,0.00
2023-05-07T00:26:29.160Z,0.00
2023-05-07T00:27:29.152Z,0.00
2023-05-07T00:28:29.138Z,0.00
2023-05-07T00:29:29.130Z,0.00
2023-05-07T00:30:29.131Z,0.00
2023-05-07T00:31:29.108Z,0.00
2023-05-07T00:32:29.116Z,0.00
2023-05-07T00:33:29.076Z,0.00
2023-05-07T00:34:29.059Z,0.00
2023-05-07T00:35:29.046Z,0.00
2023-05-07T00:36:29.041Z,0.00
2023-05-07T00:37:29.020Z,0.00
2023-05-07T00:38:29.005Z,0.00
2023-05-07T00:39:29.034Z,0.00
2023-05-07T00:40:29.004Z,0.00
2023-05-07T00:41:28.967Z,0.00
2023-05-07T00:42:28.958Z,0.00
2023-05-07T00:43:28.941Z,0.00
2023-05-07T00:44:28.929Z,0.00
2023-05-07T00:45:28.931Z,0.00
2023-05-07T00:46:29.041Z,0.00
2023-05-07T00:47:29.687Z,0.00
2023-05-07T00:48:28.881Z,0.00
2023-05-07T00:49:28.857Z,0.00
2023-05-07T00:50:28.854Z,0.00
2023-05-07T00:51:28.842Z,0.00
2023-05-07T00:52:28.895Z,0.00
2023-05-07T00:53:28.832Z,0.00
2023-05-07T00:54:28.796Z,0.00
2023-05-07T00:55:28.784Z,0.00
2023-05-07T00:56:28.783Z,0.00
2023-05-07T00:57:28.764Z,0.00
2023-05-07T00:58:28.744Z,0.00
2023-05-07T00:59:28.777Z,0.00
2023-05-07T01:00:28.725Z,0.00
2023-05-07T01:01:28.726Z,0.00
2023-05-07T01:02:28.719Z,0.00
2023-05-07T01:03:28.693Z,0.00
2023-05-07T01:04:28.697Z,0.00
2023-05-07T01:05:28.668Z,0.00
2023-05-07T01:06:28.640Z,0.00
2023-05-07T01:07:28.631Z,0.00
2023-05-07T01:08:28.694Z,0.00
2023-05-07T01:09:28.608Z,0.00
2023-05-07T01:10:28.586Z,0.00
2023-05-07T01:11:28.574Z,0.00
2023-05-07T01:12:28.564Z,0.00
2023-05-07T01:13:28.619Z,0.00
2023-05-07T01:14:28.537Z,0.00
2023-05-07T01:15:28.520Z,0.00
2023-05-07T01:16:28.547Z,0.00
2023-05-07T01:17:28.503Z,0.00
2023-05-07T01:18:28.484Z,0.00
2023-05-07T01:19:28.470Z,0.00
2023-05-07T01:20:28.462Z,0.00
2023-05-07T01:21:28.444Z,0.00
2023-05-07T01:22:28.431Z,0.00
2023-05-07T01:23:28.424Z,0.00
2023-05-07T01:24:28.451Z,0.00
2023-05-07T01:25:28.392Z,0.00
2023-05-07T01:26:28.383Z,0.00
2023-05-07T01:27:28.370Z,0.00
2023-05-07T01:28:28.353Z,0.00
2023-05-07T01:29:28.342Z,0.00
2023-05-07T01:30:28.332Z,0.00
2023-05-07T01:31:28.359Z,0.00
2023-05-07T01:32:28.330Z,0.00
2023-05-07T01:33:28.292Z,0.00
2023-05-07T01:34:28.273Z,0.00
2023-05-07T01:35:28.258Z,0.00
2023-05-07T01:36:28.302Z,0.00
2023-05-07T01:37:28.232Z,0.00
2023-05-07T01:38:28.218Z,0.00
2023-05-07T01:39:28.209Z,0.00
2023-05-07T01:40:28.200Z,0.00
2023-05-07T01:41:28.195Z,0.00
2023-05-07T01:42:28.165Z,0.00
2023-05-07T01:43:28.153Z,0.00
2023-05-07T01:44:28.145Z,0.00
2023-05-07T01:45:28.127Z,0.00
2023-05-07T01:46:28.167Z,0.00
2023-05-07T01:47:28.120Z,0.00
2023-05-07T01:48:28.105Z,0.00
2023-05-07T01:49:28.078Z,0.00
2023-05-07T01:50:28.093Z,0.00
2023-05-07T01:51:28.045Z,0.00
2023-05-07T01:52:28.037Z,0.00
2023-05-07T01:53:28.015Z,0.00
2023-05-07T01:54:28.010Z,0.00
2023-05-07T01:55:27.993Z,0.00
2023-05-07T01:56:28.063Z,0.00
2023-05-07T01:57:27.975Z,0.00
2023-05-07T01:58:27.971Z,0.00
2023-05-07T01:59:27.939Z,0.00
2023-05-07T02:00:27.937Z,0.00
2023-05-07T02:01:27.939Z,0.00
2023-05-07T02:02:27.975Z,0.00
2023-05-07T02:03:27.976Z,0.00
2023-05-07T02:04:27.872Z,0.00
2023-05-07T02:05:27.855Z,0.00
2023-05-07T02:06:27.857Z,0.00
2023-05-07T02:07:27.848Z,0.00
2023-05-07T02:08:27.825Z,0.00
2023-05-07T02:09:27.802Z,0.00
2023-05-07T02:10:27.793Z,0.00
2023-05-07T02:11:27.783Z,0.00
2023-05-07T02:12:27.807Z,0.00
2023-05-07T02:13:27.748Z,0.00
2023-05-07T02:14:27.744Z,0.00
2023-05-07T02:15:27.726Z,0.00
2023-05-07T02:16:27.815Z,0.00
2023-05-07T02:17:27.763Z,0.00
2023-05-07T02:18:27.684Z,0.00
2023-05-07T02:19:27.719Z,0.00
2023-05-07T02:20:27.665Z,0.00
2023-05-07T02:21:29.487Z,0.00
2023-05-07T02:22:27.633Z,0.00
2023-05-07T02:23:27.632Z,0.00
2023-05-07T02:24:27.610Z,0.00
2023-05-07T02:25:27.601Z,0.00
2023-05-07T02:26:27.580Z,0.00
2023-05-07T02:27:27.568Z,0.00
2023-05-07T02:28:27.648Z,0.00
2023-05-07T02:29:27.544Z,0.00
2023-05-07T02:30:27.532Z,0.00
2023-05-07T02:31:27.558Z,0.00
2023-05-07T02:32:27.543Z,0.00
2023-05-07T02:33:27.497Z,0.00
2023-05-07T02:34:27.480Z,0.00
2023-05-07T02:35:27.471Z,0.00
2023-05-07T02:36:27.469Z,0.00
2023-05-07T02:37:27.446Z,0.00
2023-05-07T02:38:27.434Z,0.00
2023-05-07T02:39:27.414Z,0.00
2023-05-07T02:40:27.402Z,0.00
2023-05-07T02:41:27.391Z,0.00
2023-05-07T02:42:27.369Z,0.00
2023-05-07T02:43:27.357Z,0.00
2023-05-07T02:44:27.432Z,0.00
2023-05-07T02:45:27.331Z,0.00
2023-05-07T02:46:27.390Z,0.00
2023-05-07T02:47:27.325Z,0.00
2023-05-07T02:48:27.303Z,0.00
2023-05-07T02:49:27.283Z,0.00
2023-05-07T02:50:27.275Z,0.00
2023-05-07T02:51:27.260Z,0.00
2023-05-07T02:52:27.239Z,0.00
2023-05-07T02:53:27.233Z,0.00
2023-05-07T02:54:27.210Z,0.00
2023-05-07T02:55:27.207Z,0.00
2023-05-07T02:56:27.374Z,0.00
2023-05-07T02:58:27.612Z,0.00
2023-05-07T02:59:33.059Z,0.00
2023-05-07T03:00:27.466Z,0.00
2023-05-07T03:01:27.231Z,0.00
2023-05-07T03:02:27.144Z,0.00
2023-05-07T03:03:27.105Z,0.00
2023-05-07T03:04:27.155Z,0.00
2023-05-07T03:05:27.100Z,0.00
2023-05-07T03:06:27.099Z,0.00
2023-05-07T03:07:27.132Z,0.00
2023-05-07T03:08:27.383Z,0.00
2023-05-07T03:09:27.027Z,0.00
2023-05-07T03:10:27.053Z,0.00
2023-05-07T03:11:27.053Z,0.00
2023-05-07T03:12:27.033Z,0.00
2023-05-07T03:13:27.340Z,0.00
2023-05-07T03:14:27.134Z,0.00
2023-05-07T03:15:27.046Z,0.00
2023-05-07T03:16:27.192Z,0.00
2023-05-07T03:17:27.116Z,0.00
2023-05-07T03:18:27.094Z,0.00
2023-05-07T03:19:27.075Z,0.00
2023-05-07T03:20:27.856Z,0.00
2023-05-07T03:21:26.906Z,0.00
2023-05-07T03:22:27.004Z,0.00
2023-05-07T03:23:27.023Z,0.00
2023-05-07T03:24:27.024Z,0.00
2023-05-07T03:25:27.045Z,0.00
2023-05-07T03:26:26.793Z,0.00
2023-05-07T03:27:26.789Z,0.00
2023-05-07T03:28:26.819Z,4.00
2023-05-07T03:29:26.852Z,4.00
2023-05-07T03:30:26.747Z,4.00
2023-05-07T03:31:26.748Z,0.00
2023-05-07T03:32:26.820Z,0.00
2023-05-07T03:33:26.794Z,4.00
2023-05-07T03:34:26.681Z,4.00
2023-05-07T03:35:26.689Z,4.00
2023-05-07T03:36:26.671Z,4.00
2023-05-07T03:37:26.663Z,4.00
2023-05-07T03:38:26.657Z,8.00
2023-05-07T03:39:26.623Z,8.00
2023-05-07T03:40:26.625Z,8.00
2023-05-07T03:41:26.821Z,12.00
2023-05-07T03:42:26.644Z,8.00
2023-05-07T03:43:26.574Z,12.00
2023-05-07T03:44:26.605Z,16.00
2023-05-07T03:45:26.564Z,16.00
2023-05-07T03:46:26.643Z,16.00
2023-05-07T03:47:26.621Z,20.00
2023-05-07T03:48:26.508Z,20.00
2023-05-07T03:49:26.489Z,24.00
2023-05-07T03:50:26.483Z,24.00
2023-05-07T03:51:26.521Z,24.00
2023-05-07T03:52:26.463Z,28.00
2023-05-07T03:53:26.439Z,28.00
2023-05-07T03:54:26.439Z,32.00
2023-05-07T03:55:26.411Z,32.00
2023-05-07T03:56:26.404Z,32.00
2023-05-07T03:57:26.388Z,36.00
2023-05-07T03:58:26.385Z,40.00
2023-05-07T03:59:26.368Z,40.00
2023-05-07T04:00:26.369Z,44.00
2023-05-07T04:01:26.413Z,44.00
2023-05-07T04:02:26.553Z,48.00
2023-05-07T04:03:26.375Z,52.00
2023-05-07T04:04:26.455Z,56.00
2023-05-07T04:05:26.288Z,64.00
2023-05-07T04:06:26.283Z,72.00
2023-05-07T04:07:26.266Z,80.00
2023-05-07T04:08:26.243Z,84.00
2023-05-07T04:09:26.239Z,92.00
2023-05-07T04:10:26.225Z,100.00
2023-05-07T04:11:26.480Z,112.00
2023-05-07T04:12:26.364Z,120.00
2023-05-07T04:13:26.497Z,128.00
2023-05-07T04:14:26.367Z,136.00
2023-05-07T04:15:26.490Z,144.00
2023-05-07T04:16:26.499Z,152.00
2023-05-07T04:17:26.442Z,160.00
2023-05-07T04:18:26.398Z,164.00
2023-05-07T04:19:26.374Z,172.00
2023-05-07T04:20:26.285Z,180.00
2023-05-07T04:21:26.317Z,184.00
2023-05-07T04:22:26.921Z,192.00
2023-05-07T04:23:26.180Z,196.00
2023-05-07T04:24:26.336Z,204.00
2023-05-07T04:25:26.275Z,212.00
2023-05-07T04:26:26.281Z,220.00
2023-05-07T04:27:26.091Z,220.00
2023-05-07T04:28:26.278Z,228.00
2023-05-07T04:29:26.075Z,228.00
2023-05-07T04:30:26.259Z,232.00
2023-05-07T04:31:26.106Z,240.00
2023-05-07T04:32:26.036Z,248.00
2023-05-07T04:33:26.177Z,264.00
2023-05-07T04:34:26.091Z,272.00
2023-05-07T04:35:26.119Z,276.00
2023-05-07T04:36:26.244Z,284.00
2023-05-07T04:37:25.871Z,288.00
2023-05-07T04:38:26.169Z,288.00
2023-05-07T04:39:26.090Z,288.00
2023-05-07T04:40:26.103Z,292.00
2023-05-07T04:41:25.914Z,292.00
2023-05-07T04:42:25.955Z,288.00
2023-05-07T04:43:26.244Z,288.00
2023-05-07T04:44:25.894Z,288.00
2023-05-07T04:45:26.872Z,292.00
2023-05-07T04:46:26.024Z,296.00
2023-05-07T04:47:26.183Z,300.00
2023-05-07T04:48:26.072Z,308.00
2023-05-07T04:49:25.978Z,320.00
2023-05-07T04:50:25.811Z,340.00
2023-05-07T04:51:25.976Z,368.00
2023-05-07T04:52:27.451Z,396.00
2023-05-07T04:53:25.779Z,424.00
2023-05-07T04:54:25.809Z,448.00
2023-05-07T04:55:26.234Z,464.00
2023-05-07T04:56:25.743Z,476.00
2023-05-07T04:57:25.886Z,484.00
2023-05-07T04:58:25.790Z,496.00
2023-05-07T04:59:25.672Z,508.00
2023-05-07T05:00:25.706Z,516.00
2023-05-07T05:01:25.744Z,508.00
2023-05-07T05:02:25.837Z,504.00
2023-05-07T05:03:25.852Z,532.00
2023-05-07T05:04:25.880Z,564.00
2023-05-07T05:05:25.902Z,580.00
2023-05-07T05:06:25.562Z,600.00
2023-05-07T05:07:25.607Z,624.00
2023-05-07T05:08:25.966Z,636.00
2023-05-07T05:09:25.789Z,644.00
2023-05-07T05:10:25.651Z,652.00
2023-05-07T05:11:26.880Z,668.00
2023-05-07T05:12:25.584Z,684.00
2023-05-07T05:13:26.753Z,676.00
2023-05-07T05:14:25.617Z,640.00
2023-05-07T05:15:25.719Z,604.00
2023-05-07T05:16:25.628Z,620.00
2023-05-07T05:17:25.654Z,664.00
2023-05-07T05:18:25.580Z,716.00
2023-05-07T05:19:25.590Z,748.00
2023-05-07T05:20:25.372Z,772.00
2023-05-07T05:21:25.434Z,788.00
2023-05-07T05:22:25.534Z,800.00
2023-05-07T05:23:25.320Z,816.00
2023-05-07T05:24:25.576Z,836.00
2023-05-07T05:25:25.411Z,860.00
2023-05-07T05:26:25.312Z,872.00
2023-05-07T05:27:25.279Z,876.00
2023-05-07T05:28:25.289Z,884.00
2023-05-07T05:29:25.246Z,908.00
2023-05-07T05:30:25.987Z,948.00
2023-05-07T05:31:25.364Z,1000.00
2023-05-07T05:32:25.210Z,1048.00
2023-05-07T05:33:25.213Z,1096.00
2023-05-07T05:34:25.181Z,1136.00
2023-05-07T05:35:25.155Z,1148.00
2023-05-07T05:36:25.203Z,1120.00
2023-05-07T05:37:25.188Z,1064.00
2023-05-07T05:38:25.120Z,1040.00
2023-05-07T05:39:25.112Z,1080.00
2023-05-07T05:40:25.116Z,1128.00
2023-05-07T05:41:25.091Z,1156.00
2023-05-07T05:42:25.087Z,1156.00
2023-05-07T05:43:25.082Z,1124.00
2023-05-07T05:44:25.094Z,1096.00
2023-05-07T05:45:25.050Z,1072.00
2023-05-07T05:46:25.238Z,1064.00
2023-05-07T05:47:25.257Z,1052.00
2023-05-07T05:48:25.101Z,1040.00
2023-05-07T05:49:25.156Z,1016.00
2023-05-07T05:50:25.118Z,992.00
2023-05-07T05:51:25.067Z,968.00
2023-05-07T05:52:25.021Z,952.00
2023-05-07T05:53:24.958Z,960.00
2023-05-07T05:54:25.142Z,980.00
2023-05-07T05:55:24.948Z,1000.00
2023-05-07T05:56:25.000Z,1028.00
2023-05-07T05:57:26.645Z,1060.00
2023-05-07T05:58:25.129Z,1112.00
2023-05-07T05:59:24.915Z,1156.00
2023-05-07T06:00:24.874Z,1172.00
2023-05-07T06:01:24.887Z,1184.00
2023-05-07T06:02:25.070Z,1192.00
2023-05-07T06:03:25.104Z,1204.00
2023-05-07T06:04:24.915Z,1236.00
2023-05-07T06:05:25.132Z,1268.00
2023-05-07T06:06:24.905Z,1300.00
2023-05-07T06:07:24.975Z,1332.00
2023-05-07T06:08:24.979Z,1332.00
2023-05-07T06:09:24.763Z,1332.00
2023-05-07T06:10:24.757Z,1336.00
2023-05-07T06:11:24.752Z,1344.00
2023-05-07T06:12:24.829Z,1348.00
2023-05-07T06:13:26.566Z,1348.00
2023-05-07T06:14:24.865Z,1348.00
2023-05-07T06:15:25.057Z,1340.00
2023-05-07T06:16:24.838Z,1304.00
2023-05-07T06:17:24.932Z,1268.00
2023-05-07T06:18:24.857Z,1264.00
2023-05-07T06:19:24.653Z,1252.00
2023-05-07T06:20:24.640Z,1252.00
2023-05-07T06:21:24.667Z,1268.00
2023-05-07T06:22:24.637Z,1236.00
2023-05-07T06:23:24.626Z,1176.00
2023-05-07T06:24:24.698Z,1176.00
2023-05-07T06:25:24.653Z,1236.00
2023-05-07T06:26:24.736Z,1300.00
2023-05-07T06:27:24.560Z,1324.00
2023-05-07T06:28:24.692Z,1328.00
2023-05-07T06:29:24.598Z,1304.00
2023-05-07T06:30:24.621Z,1232.00
2023-05-07T06:31:25.135Z,1188.00
2023-05-07T06:32:24.704Z,1220.00
2023-05-07T06:33:24.594Z,1276.00
2023-05-07T06:34:24.584Z,1324.00
2023-05-07T06:35:24.651Z,1368.00
2023-05-07T06:36:24.590Z,1420.00
2023-05-07T06:37:24.449Z,1440.00
2023-05-07T06:38:25.010Z,1452.00
2023-05-07T06:39:24.552Z,1484.00
2023-05-07T06:40:24.591Z,1520.00
2023-05-07T06:41:24.517Z,1556.00
2023-05-07T06:42:25.920Z,1588.00
2023-05-07T06:43:24.754Z,1608.00
2023-05-07T06:44:24.819Z,1604.00
2023-05-07T06:45:24.579Z,1604.00
2023-05-07T06:46:24.509Z,1620.00
2023-05-07T06:47:24.398Z,1644.00
2023-05-07T06:48:24.494Z,1676.00
2023-05-07T06:49:24.468Z,1716.00
2023-05-07T06:50:24.621Z,1744.00
2023-05-07T06:51:24.485Z,1768.00
2023-05-07T06:52:24.522Z,1800.00
2023-05-07T06:53:24.571Z,1840.00
2023-05-07T06:54:24.531Z,1884.00
2023-05-07T06:55:24.453Z,1932.00
2023-05-07T06:56:27.045Z,1988.00
2023-05-07T06:57:24.566Z,2040.00
2023-05-07T06:58:24.419Z,2092.00
2023-05-07T06:59:24.219Z,2136.00
2023-05-07T07:00:24.312Z,2112.00
2023-05-07T07:01:24.333Z,2012.00
2023-05-07T07:02:24.239Z,1932.00
2023-05-07T07:03:24.176Z,1864.00
2023-05-07T07:04:24.234Z,1824.00
2023-05-07T07:05:24.232Z,1788.00
2023-05-07T07:06:24.271Z,1748.00
2023-05-07T07:07:24.299Z,1712.00
2023-05-07T07:08:24.116Z,1672.00
2023-05-07T07:09:24.310Z,1604.00
2023-05-07T07:10:24.112Z,1520.00
2023-05-07T07:11:24.081Z,1512.00
2023-05-07T07:12:24.091Z,1600.00
2023-05-07T07:13:24.310Z,1704.00
2023-05-07T07:14:24.245Z,1792.00
2023-05-07T07:15:24.229Z,1856.00
2023-05-07T07:16:24.187Z,1928.00
2023-05-07T07:17:24.074Z,2000.00
2023-05-07T07:18:24.000Z,2080.00
2023-05-07T07:19:24.015Z,2172.00
2023-05-07T07:20:24.047Z,2252.00
2023-05-07T07:21:24.090Z,2316.00
2023-05-07T07:22:24.047Z,2384.00
2023-05-07T07:23:23.951Z,2484.00
2023-05-07T07:24:23.939Z,2620.00
2023-05-07T07:25:23.921Z,2748.00
2023-05-07T07:26:23.947Z,2824.00
2023-05-07T07:27:24.070Z,2880.00
2023-05-07T07:28:23.974Z,2936.00
2023-05-07T07:29:24.229Z,2964.00
2023-05-07T07:30:24.012Z,2948.00
2023-05-07T07:31:23.944Z,2840.00
2023-05-07T07:32:24.013Z,2744.00
2023-05-07T07:33:24.201Z,2720.00
2023-05-07T07:34:23.880Z,2756.00
2023-05-07T07:35:25.611Z,2788.00
2023-05-07T07:36:27.347Z,2796.00
2023-05-07T07:37:23.811Z,2740.00
2023-05-07T07:38:23.805Z,2608.00
2023-05-07T07:39:23.778Z,2444.00
2023-05-07T07:40:23.810Z,2348.00
2023-05-07T07:41:23.834Z,2336.00
2023-05-07T07:42:23.804Z,2380.00
2023-05-07T07:43:23.807Z,2416.00
2023-05-07T07:44:23.725Z,2384.00
2023-05-07T07:45:23.725Z,2316.00
2023-05-07T07:46:23.809Z,2260.00
2023-05-07T07:47:23.770Z,2256.00
2023-05-07T07:48:23.777Z,2300.00
2023-05-07T07:49:23.691Z,2384.00
2023-05-07T07:50:40.091Z,2464.00
2023-05-07T07:51:23.722Z,2556.00
2023-05-07T07:52:23.755Z,2636.00
2023-05-07T07:53:23.685Z,2648.00
2023-05-07T07:54:23.633Z,2568.00
2023-05-07T07:55:23.710Z,2440.00
2023-05-07T07:56:23.627Z,2356.00
2023-05-07T07:57:23.605Z,2340.00
2023-05-07T07:58:24.287Z,2332.00
2023-05-07T07:59:23.586Z,2308.00
2023-05-07T08:00:23.633Z,2268.00
2023-05-07T08:01:23.571Z,2224.00
2023-05-07T08:02:23.750Z,2184.00
2023-05-07T08:03:23.677Z,2156.00
2023-05-07T08:04:23.638Z,2124.00
2023-05-07T08:05:23.606Z,2080.00
2023-05-07T08:06:23.524Z,2052.00
2023-05-07T08:07:23.618Z,2052.00
2023-05-07T08:08:23.784Z,2080.00
2023-05-07T08:09:23.660Z,2128.00
2023-05-07T08:10:23.612Z,2188.00
2023-05-07T08:11:23.585Z,2236.00
2023-05-07T08:12:23.460Z,2272.00
2023-05-07T08:13:23.809Z,2300.00
2023-05-07T08:14:23.567Z,2340.00
2023-05-07T08:15:23.501Z,2412.00
2023-05-07T08:16:24.319Z,2520.00
2023-05-07T08:17:23.597Z,2640.00
2023-05-07T08:18:23.414Z,2760.00
2023-05-07T08:19:23.557Z,2876.00
2023-05-07T08:20:23.747Z,3004.00
2023-05-07T08:21:23.429Z,3144.00
2023-05-07T08:22:23.513Z,3280.00
2023-05-07T08:23:23.398Z,3408.00
2023-05-07T08:24:23.363Z,3520.00
2023-05-07T08:25:23.485Z,3612.00
2023-05-07T08:26:23.577Z,3676.00
2023-05-07T08:27:23.594Z,3728.00
2023-05-07T08:28:23.817Z,3780.00
2023-05-07T08:29:24.607Z,3840.00
2023-05-07T08:30:23.301Z,3892.00
2023-05-07T08:31:23.402Z,3976.00
2023-05-07T08:32:23.310Z,4120.00
2023-05-07T08:33:23.267Z,4284.00
2023-05-07T08:34:23.349Z,4452.00
2023-05-07T08:35:23.251Z,4552.00
2023-05-07T08:36:23.309Z,4612.00
2023-05-07T08:37:23.275Z,4632.00
2023-05-07T08:38:23.263Z,4512.00
2023-05-07T08:39:23.222Z,4380.00
2023-05-07T08:40:23.220Z,4296.00
2023-05-07T08:41:23.197Z,4312.00
2023-05-07T08:42:23.310Z,4456.00
2023-05-07T08:43:23.179Z,4700.00
2023-05-07T08:44:23.171Z,4844.00
2023-05-07T08:45:23.208Z,5104.00
2023-05-07T08:46:23.309Z,5488.00
2023-05-07T08:47:23.171Z,5496.00
2023-05-07T08:48:23.133Z,5180.00
2023-05-07T08:49:23.175Z,4948.00
2023-05-07T08:50:23.156Z,4844.00
2023-05-07T08:51:23.115Z,4828.00
2023-05-07T08:52:23.186Z,4888.00
2023-05-07T08:53:23.089Z,4948.00
2023-05-07T08:54:23.087Z,5008.00
2023-05-07T08:55:23.080Z,5068.00
2023-05-07T08:56:23.125Z,5192.00
2023-05-07T08:57:23.066Z,5008.00
2023-05-07T08:58:23.114Z,4928.00
2023-05-07T08:59:23.134Z,4884.00
2023-05-07T09:00:23.037Z,4824.00
2023-05-07T09:01:23.167Z,4756.00
2023-05-07T09:02:23.143Z,4724.00
2023-05-07T09:03:23.167Z,4720.00
2023-05-07T09:04:23.006Z,4760.00
2023-05-07T09:05:23.662Z,4824.00
2023-05-07T09:06:23.114Z,4884.00
2023-05-07T09:07:23.033Z,4968.00
2023-05-07T09:08:23.079Z,5132.00
2023-05-07T09:09:23.012Z,5176.00
2023-05-07T09:10:22.986Z,5132.00
2023-05-07T09:11:23.156Z,5100.00
2023-05-07T09:12:22.959Z,5052.00
2023-05-07T09:13:23.246Z,5028.00
2023-05-07T09:14:23.036Z,5000.00
2023-05-07T09:15:23.628Z,4956.00
2023-05-07T09:16:23.189Z,4952.00
2023-05-07T09:17:23.067Z,4996.00
2023-05-07T09:18:22.966Z,4984.00
2023-05-07T09:19:23.075Z,5028.00
2023-05-07T09:20:23.009Z,5076.00
2023-05-07T09:21:23.061Z,5100.00
2023-05-07T09:22:23.027Z,5132.00
2023-05-07T09:23:22.964Z,5132.00
2023-05-07T09:24:22.958Z,5044.00
2023-05-07T09:25:22.963Z,4988.00
2023-05-07T09:26:22.959Z,4960.00
2023-05-07T09:27:22.895Z,4960.00
2023-05-07T09:28:22.937Z,5036.00
2023-05-07T09:29:22.818Z,5156.00
2023-05-07T09:30:23.037Z,5308.00
2023-05-07T09:31:23.003Z,5464.00
2023-05-07T09:32:27.458Z,5624.00
2023-05-07T09:33:22.872Z,5924.00
2023-05-07T09:34:22.796Z,5968.00
2023-05-07T09:35:22.958Z,6212.00
2023-05-07T09:36:22.776Z,6528.00
2023-05-07T09:37:23.468Z,6944.00
2023-05-07T09:38:25.327Z,7164.00
2023-05-07T09:39:23.923Z,7408.00
2023-05-07T09:40:22.918Z,8076.00
2023-05-07T09:41:22.906Z,8140.00
2023-05-07T09:42:22.739Z,7968.00
2023-05-07T09:43:22.727Z,7976.00
2023-05-07T09:44:22.776Z,7988.00
2023-05-07T09:45:22.834Z,8436.00
2023-05-07T09:46:22.829Z,8328.00
2023-05-07T09:47:22.749Z,9380.00
2023-05-07T09:48:22.804Z,9712.00
2023-05-07T09:49:22.687Z,9660.00
2023-05-07T09:50:22.765Z,13596.00
2023-05-07T09:51:22.695Z,10272.00
2023-05-07T09:52:22.674Z,10852.00
2023-05-07T09:53:22.756Z,12092.00
2023-05-07T09:54:22.671Z,16352.00
2023-05-07T09:55:22.660Z,15888.00
2023-05-07T09:56:22.924Z,14292.00
2023-05-07T09:57:22.683Z,13792.00
2023-05-07T09:58:22.763Z,11800.00
2023-05-07T09:59:22.656Z,12856.00
2023-05-07T10:00:22.673Z,17344.00
2023-05-07T10:01:22.685Z,11112.00
2023-05-07T10:02:22.910Z,9940.00
2023-05-07T10:03:22.916Z,9116.00
2023-05-07T10:04:22.738Z,9068.00
2023-05-07T10:05:22.659Z,9068.00
2023-05-07T10:06:22.638Z,8756.00
2023-05-07T10:07:22.634Z,9304.00
2023-05-07T10:08:22.758Z,11140.00
2023-05-07T10:09:22.745Z,10204.00
2023-05-07T10:10:22.810Z,10496.00
2023-05-07T10:11:22.726Z,13284.00
2023-05-07T10:12:22.795Z,11760.00
2023-05-07T10:13:22.852Z,12904.00
2023-05-07T10:14:22.886Z,14768.00
2023-05-07T10:15:23.329Z,14172.00
2023-05-07T10:16:22.764Z,13204.00
2023-05-07T10:17:22.879Z,11476.00
2023-05-07T10:18:22.824Z,13216.00
2023-05-07T10:19:22.703Z,11956.00
2023-05-07T10:20:22.711Z,20064.00
2023-05-07T10:21:22.723Z,19456.00
2023-05-07T10:22:22.697Z,15744.00
2023-05-07T10:23:22.737Z,16768.00
2023-05-07T10:24:22.688Z,17472.00
2023-05-07T10:25:22.740Z,21856.00
2023-05-07T10:26:22.816Z,15984.00
2023-05-07T10:27:22.796Z,12572.00
2023-05-07T10:28:22.822Z,11424.00
2023-05-07T10:29:22.692Z,10444.00
2023-05-07T10:30:22.718Z,9736.00
2023-05-07T10:31:22.748Z,9436.00
2023-05-07T10:32:22.687Z,8644.00
2023-05-07T10:33:22.687Z,8484.00
2023-05-07T10:34:22.685Z,8364.00
2023-05-07T10:35:22.884Z,7240.00
2023-05-07T10:36:22.684Z,7704.00
2023-05-07T10:37:22.753Z,7072.00
2023-05-07T10:38:22.616Z,6528.00
2023-05-07T10:39:22.802Z,6432.00
2023-05-07T10:40:22.705Z,6212.00
2023-05-07T10:41:22.963Z,5776.00
2023-05-07T10:42:26.134Z,5396.00
2023-05-07T10:43:22.961Z,5488.00
2023-05-07T10:44:22.759Z,5420.00
2023-05-07T10:45:22.674Z,5184.00
2023-05-07T10:46:22.757Z,5112.00
2023-05-07T10:47:22.777Z,4980.00
2023-05-07T10:48:30.244Z,4852.00
2023-05-07T10:49:24.536Z,4732.00
2023-05-07T10:50:22.842Z,4684.00
2023-05-07T10:51:23.597Z,4664.00
2023-05-07T10:52:22.730Z,4776.00
2023-05-07T10:53:22.880Z,4860.00
2023-05-07T10:54:22.666Z,4968.00
2023-05-07T10:55:22.828Z,5092.00
2023-05-07T10:56:22.842Z,5368.00
2023-05-07T10:57:23.719Z,5524.00
2023-05-07T10:58:30.789Z,5616.00
2023-05-07T10:59:22.728Z,5916.00
2023-05-07T11:00:38.155Z,6300.00
2023-05-07T11:01:27.656Z,6604.00
2023-05-07T11:02:22.904Z,7440.00
2023-05-07T11:03:22.673Z,8592.00
2023-05-07T11:04:22.782Z,11392.00
2023-05-07T11:05:23.196Z,13548.00
2023-05-07T11:06:22.734Z,13892.00
2023-05-07T11:07:22.668Z,12900.00
2023-05-07T11:08:22.804Z,12252.00
2023-05-07T11:09:22.682Z,11516.00
2023-05-07T11:10:22.824Z,11328.00
2023-05-07T11:11:22.669Z,12068.00
2023-05-07T11:12:22.735Z,13160.00
2023-05-07T11:13:23.003Z,13280.00
2023-05-07T11:14:22.741Z,13288.00
2023-05-07T11:15:22.641Z,13136.00
2023-05-07T11:16:22.687Z,12760.00
2023-05-07T11:17:23.236Z,11428.00
2023-05-07T11:18:22.634Z,11476.00
2023-05-07T11:19:25.092Z,11496.00
2023-05-07T11:20:22.703Z,12024.00
2023-05-07T11:21:23.275Z,12436.00
2023-05-07T11:22:23.176Z,10532.00
2023-05-07T11:23:22.852Z,8748.00
2023-05-07T11:24:22.727Z,12384.00
2023-05-07T11:25:22.645Z,14768.00
2023-05-07T11:26:23.283Z,15936.00
2023-05-07T11:27:23.031Z,15004.00
2023-05-07T11:28:23.082Z,15160.00
2023-05-07T11:29:23.386Z,16224.00
2023-05-07T11:30:22.961Z,18304.00
2023-05-07T11:31:23.002Z,16576.00
2023-05-07T11:32:22.849Z,16832.00
2023-05-07T11:33:22.864Z,16608.00
2023-05-07T11:34:22.827Z,15436.00
2023-05-07T11:35:22.784Z,17888.00
2023-05-07T11:36:22.813Z,16064.00
2023-05-07T11:37:25.183Z,18336.00
2023-05-07T11:38:24.018Z,11104.00
2023-05-07T11:39:22.913Z,11104.00
2023-05-07T11:40:22.726Z,18272.00
2023-05-07T11:41:22.701Z,17728.00
2023-05-07T11:42:22.814Z,15036.00
2023-05-07T11:43:22.699Z,18016.00
2023-05-07T11:44:22.628Z,15216.00
2023-05-07T11:45:22.849Z,10728.00
2023-05-07T11:46:22.860Z,7512.00
2023-05-07T11:47:22.489Z,15436.00
2023-05-07T11:48:22.500Z,15772.00
2023-05-07T11:49:22.579Z,15788.00
2023-05-07T11:50:22.657Z,15496.00
2023-05-07T11:51:22.645Z,14220.00
2023-05-07T11:52:22.980Z,13100.00
2023-05-07T11:53:22.698Z,14264.00
2023-05-07T11:54:22.761Z,13836.00
2023-05-07T11:55:22.885Z,12580.00
2023-05-07T11:56:22.759Z,12644.00
2023-05-07T11:57:23.316Z,12216.00
2023-05-07T11:58:22.757Z,13320.00
2023-05-07T11:59:22.640Z,14004.00
2023-05-07T12:00:22.698Z,14320.00
2023-05-07T12:01:22.985Z,13696.00
2023-05-07T12:02:22.577Z,12872.00
2023-05-07T12:03:22.636Z,9808.00
2023-05-07T12:04:23.048Z,6684.00
2023-05-07T12:05:22.750Z,7888.00
2023-05-07T12:06:22.529Z,10444.00
2023-05-07T12:07:22.516Z,13128.00
2023-05-07T12:08:23.135Z,12860.00
2023-05-07T12:09:22.485Z,11456.00
2023-05-07T12:10:22.497Z,12076.00
2023-05-07T12:11:22.488Z,6372.00
2023-05-07T12:12:22.484Z,6924.00
2023-05-07T12:13:22.801Z,11948.00
2023-05-07T12:14:22.510Z,11636.00
2023-05-07T12:15:22.825Z,11072.00
2023-05-07T12:16:22.859Z,11056.00
2023-05-07T12:17:22.759Z,10532.00
2023-05-07T12:18:22.853Z,10520.00
2023-05-07T12:19:22.499Z,10896.00
2023-05-07T12:20:22.539Z,11144.00
2023-05-07T12:21:22.500Z,11452.00
2023-05-07T12:22:22.496Z,11324.00
2023-05-07T12:23:22.508Z,11416.00
2023-05-07T12:24:22.679Z,11504.00
2023-05-07T12:25:22.858Z,11472.00
2023-05-07T12:26:22.548Z,10716.00
2023-05-07T12:27:22.651Z,9644.00